createdAt,value
2018-06-22T00:02:16.828Z,57.60
2018-06-22T00:04:45.594Z,58.10
2018-06-22T00:07:14.283Z,57.70
2018-06-22T00:09:42.963Z,58.00
2018-06-22T00:12:11.689Z,58.10
2018-06-22T00:14:40.272Z,58.00
2018-06-22T00:17:08.921Z,58.00
2018-06-22T00:19:37.603Z,58.10
2018-06-22T00:22:06.317Z,58.60
2018-06-22T00:27:03.220Z,57.80
2018-06-22T00:29:31.805Z,58.70
2018-06-22T00:32:00.406Z,58.70
2018-06-22T00:34:29.009Z,58.80
2018-06-22T00:36:57.728Z,58.70
2018-06-22T00:39:26.356Z,58.70
2018-06-22T00:41:55.132Z,58.90
2018-06-22T00:44:23.760Z,59.60
2018-06-22T00:46:52.781Z,59.10
2018-06-22T00:49:21.364Z,59.30
2018-06-22T00:51:49.983Z,59.40
2018-06-22T00:54:18.911Z,59.70
2018-06-22T00:56:47.755Z,59.50
2018-06-22T00:59:16.363Z,60.00
2018-06-22T01:01:44.984Z,60.00
2018-06-22T01:04:13.569Z,60.40
2018-06-22T01:06:42.348Z,60.50
2018-06-22T01:09:13.321Z,59.90
2018-06-22T01:11:41.943Z,60.30
2018-06-22T01:14:10.578Z,60.00
2018-06-22T01:16:39.431Z,60.30
2018-06-22T01:19:08.831Z,60.00
2018-06-22T01:21:37.463Z,60.10
2018-06-22T01:24:06.409Z,60.20
2018-06-22T01:26:35.197Z,60.50
2018-06-22T01:29:09.413Z,60.00
2018-06-22T01:31:38.022Z,60.30
2018-06-22T01:34:06.631Z,60.70
2018-06-22T01:36:35.308Z,60.60
2018-06-22T01:41:33.456Z,60.70
2018-06-22T01:44:02.334Z,60.30
2018-06-22T01:46:30.987Z,60.50
2018-06-22T01:48:59.865Z,60.20
2018-06-22T01:51:28.553Z,60.00
2018-06-22T01:53:57.253Z,60.20
2018-06-22T01:56:25.942Z,60.50
2018-06-22T01:58:54.554Z,60.30
2018-06-22T02:01:23.191Z,60.40
2018-06-22T02:03:51.944Z,60.60
2018-06-22T02:06:20.649Z,60.90
2018-06-22T02:08:49.257Z,60.90
2018-06-22T02:11:17.912Z,60.70
2018-06-22T02:13:46.735Z,61.20
2018-06-22T02:16:15.343Z,60.90
2018-06-22T02:18:43.990Z,61.00
2018-06-22T02:21:12.609Z,60.60
2018-06-22T02:23:41.241Z,60.70
2018-06-22T02:26:09.916Z,60.40
2018-06-22T02:28:38.657Z,60.30
2018-06-22T02:33:35.845Z,60.60
2018-06-22T02:36:04.539Z,60.60
2018-06-22T02:38:33.260Z,60.20
2018-06-22T02:41:03.979Z,60.20
2018-06-22T02:43:32.930Z,60.20
2018-06-22T02:46:02.070Z,60.40
2018-06-22T02:48:30.878Z,60.20
2018-06-22T02:50:59.572Z,60.10
2018-06-22T02:53:28.445Z,60.40
2018-06-22T02:55:57.327Z,60.60
2018-06-22T02:58:25.990Z,60.90
2018-06-22T03:00:54.592Z,60.50
2018-06-22T03:03:23.189Z,60.40
2018-06-22T03:05:51.797Z,61.10
2018-06-22T03:08:20.442Z,61.30
2018-06-22T03:10:49.155Z,61.40
2018-06-22T03:13:17.886Z,61.30
2018-06-22T03:15:46.502Z,61.10
2018-06-22T03:18:15.130Z,61.40
2018-06-22T03:20:43.848Z,61.30
2018-06-22T03:23:12.512Z,61.70
2018-06-22T03:25:41.098Z,62.00
2018-06-22T03:28:09.719Z,62.10
2018-06-22T03:30:38.335Z,62.60
2018-06-22T03:33:07.093Z,62.10
2018-06-22T03:35:35.705Z,61.90
2018-06-22T03:38:04.460Z,62.20
2018-06-22T03:40:33.069Z,62.10
2018-06-22T03:43:01.745Z,61.60
2018-06-22T03:45:30.385Z,62.00
2018-06-22T03:47:59.062Z,62.10
2018-06-22T03:50:27.816Z,61.90
2018-06-22T03:52:56.751Z,62.00
2018-06-22T03:55:25.344Z,62.20
2018-06-22T04:00:22.662Z,62.60
2018-06-22T04:02:51.587Z,63.30
2018-06-22T04:05:20.347Z,63.40
2018-06-22T04:07:48.955Z,62.60
2018-06-22T04:10:17.691Z,62.70
2018-06-22T04:12:46.335Z,62.50
2018-06-22T04:15:15.041Z,62.50
2018-06-22T04:17:51.287Z,62.10
2018-06-22T04:20:21.869Z,61.70
2018-06-22T04:22:51.712Z,61.90
2018-06-22T04:25:21.611Z,61.60
2018-06-22T04:27:51.321Z,60.90
2018-06-22T04:30:20.157Z,60.70
2018-06-22T04:32:49.885Z,61.50
2018-06-22T04:35:19.540Z,60.40
2018-06-22T04:37:48.235Z,60.70
2018-06-22T04:40:16.961Z,59.90
2018-06-22T04:42:45.736Z,59.30
2018-06-22T04:45:14.380Z,59.10
2018-06-22T04:47:43.244Z,59.10
2018-06-22T04:50:11.905Z,59.10
2018-06-22T04:52:40.710Z,58.90
2018-06-22T04:55:09.312Z,58.20
2018-06-22T04:57:38.122Z,59.10
2018-06-22T05:00:06.920Z,59.10
2018-06-22T05:02:35.669Z,60.70
2018-06-22T05:05:04.655Z,58.60
2018-06-22T05:07:33.469Z,58.50
2018-06-22T05:10:02.093Z,58.80
2018-06-22T05:12:30.733Z,58.90
2018-06-22T05:14:59.360Z,59.70
2018-06-22T05:17:28.181Z,59.20
2018-06-22T05:19:56.944Z,59.30
2018-06-22T05:22:25.601Z,58.90
2018-06-22T05:24:54.255Z,59.30
2018-06-22T05:27:23.011Z,59.10
2018-06-22T05:29:51.724Z,59.60
2018-06-22T05:32:20.551Z,59.60
2018-06-22T05:34:49.188Z,59.80
2018-06-22T05:37:17.862Z,60.10
2018-06-22T05:42:14.929Z,59.80
2018-06-22T05:44:43.676Z,60.10
2018-06-22T05:47:12.469Z,60.20
2018-06-22T05:49:41.107Z,60.40
2018-06-22T05:52:09.972Z,59.90
2018-06-22T05:54:39.221Z,59.30
2018-06-22T05:57:07.890Z,59.60
2018-06-22T05:59:36.609Z,59.80
2018-06-22T06:02:05.404Z,59.10
2018-06-22T06:04:34.172Z,59.40
2018-06-22T06:07:02.912Z,60.00
2018-06-22T06:09:31.841Z,60.50
2018-06-22T06:12:00.579Z,60.20
2018-06-22T06:14:29.289Z,59.50
2018-06-22T06:16:57.998Z,59.00
2018-06-22T06:19:26.638Z,59.60
2018-06-22T06:21:55.257Z,59.60
2018-06-22T06:24:23.876Z,59.60
2018-06-22T06:26:52.521Z,59.60
2018-06-22T06:29:21.264Z,59.20
2018-06-22T06:31:49.901Z,59.30
2018-06-22T06:34:18.755Z,59.60
2018-06-22T06:36:48.152Z,60.10
2018-06-22T06:39:16.819Z,60.20
2018-06-22T06:41:45.474Z,59.40
2018-06-22T06:44:14.136Z,58.90
2018-06-22T06:46:43.826Z,58.60
2018-06-22T06:49:12.613Z,59.20
2018-06-22T06:51:41.324Z,59.90
2018-06-22T06:54:09.910Z,58.80
2018-06-22T06:59:06.868Z,58.70
2018-06-22T07:01:35.582Z,58.40
2018-06-22T07:04:04.332Z,58.00
2018-06-22T07:06:32.952Z,59.00
2018-06-22T07:09:01.655Z,59.20
2018-06-22T07:11:30.309Z,58.50
2018-06-22T07:13:58.972Z,58.20
2018-06-22T07:16:27.618Z,58.30
2018-06-22T07:18:56.325Z,57.50
2018-06-22T07:21:25.120Z,58.00
2018-06-22T07:23:53.817Z,57.90
2018-06-22T07:26:22.459Z,58.60
2018-06-22T07:28:51.088Z,58.30
2018-06-22T07:31:19.712Z,59.60
2018-06-22T07:33:48.317Z,58.40
2018-06-22T07:36:16.944Z,58.10
2018-06-22T07:38:45.808Z,57.70
2018-06-22T07:41:14.410Z,58.00
2018-06-22T07:43:43.441Z,58.00
2018-06-22T07:46:12.074Z,58.80
2018-06-22T07:48:40.755Z,58.50
2018-06-22T07:51:09.608Z,57.70
2018-06-22T07:53:38.292Z,57.70
2018-06-22T07:56:06.921Z,57.30
2018-06-22T07:58:35.594Z,57.20
2018-06-22T08:01:04.307Z,57.70
2018-06-22T08:03:32.957Z,57.90
2018-06-22T08:06:01.602Z,58.90
2018-06-22T08:08:30.226Z,58.40
2018-06-22T08:10:58.956Z,57.90
2018-06-22T08:13:27.635Z,57.80
2018-06-22T08:15:56.284Z,57.90
2018-06-22T08:18:24.896Z,58.00
2018-06-22T08:20:53.890Z,57.50
2018-06-22T08:23:22.523Z,57.00
2018-06-22T08:25:51.576Z,57.50
2018-06-22T08:28:20.460Z,58.30
2018-06-22T08:30:49.106Z,58.40
2018-06-22T08:33:17.759Z,58.70
2018-06-22T08:35:46.520Z,58.70
2018-06-22T08:38:15.305Z,58.40
2018-06-22T08:40:43.924Z,58.50
2018-06-22T08:43:12.706Z,58.90
2018-06-22T08:45:41.468Z,58.20
2018-06-22T08:48:10.061Z,57.50
2018-06-22T08:50:38.856Z,57.00
2018-06-22T08:53:07.453Z,56.20
2018-06-22T08:55:36.165Z,56.40
2018-06-22T08:58:04.916Z,57.10
2018-06-22T09:00:33.586Z,60.00
2018-06-22T09:03:02.391Z,59.80
2018-06-22T09:05:31.291Z,60.40
2018-06-22T09:08:00.161Z,61.00
2018-06-22T09:10:28.819Z,59.90
2018-06-22T09:12:57.452Z,59.70
2018-06-22T09:15:26.041Z,59.10
2018-06-22T09:17:54.653Z,59.40
2018-06-22T09:20:23.802Z,61.00
2018-06-22T09:22:52.497Z,60.70
2018-06-22T09:25:21.225Z,62.30
2018-06-22T09:27:50.063Z,65.00
2018-06-22T09:30:18.702Z,70.00
2018-06-22T09:32:47.312Z,71.80
2018-06-22T09:35:16.030Z,71.90
2018-06-22T09:37:44.702Z,72.20
2018-06-22T09:40:13.393Z,72.60
2018-06-22T09:42:42.064Z,71.70
2018-06-22T09:45:10.698Z,71.40
2018-06-22T09:47:39.416Z,72.20
2018-06-22T09:50:08.025Z,68.60
2018-06-22T09:52:36.755Z,70.90
2018-06-22T09:55:05.987Z,70.00
2018-06-22T09:57:34.710Z,69.20
2018-06-22T10:00:03.471Z,69.50
2018-06-22T10:02:32.090Z,66.90
2018-06-22T10:05:00.767Z,63.90
2018-06-22T10:07:29.489Z,63.80
2018-06-22T10:09:58.305Z,64.10
2018-06-22T10:12:27.009Z,67.30
2018-06-22T10:14:56.165Z,65.60
2018-06-22T10:17:24.875Z,65.70
2018-06-22T10:19:53.551Z,65.10
2018-06-22T10:22:22.390Z,65.90
2018-06-22T10:24:51.093Z,66.90
2018-06-22T10:27:19.953Z,66.60
2018-06-22T10:29:48.558Z,64.80
2018-06-22T10:32:17.204Z,63.90
2018-06-22T10:34:46.028Z,63.30
2018-06-22T10:37:14.665Z,63.80
2018-06-22T10:39:43.402Z,62.80
2018-06-22T10:42:12.083Z,62.90
2018-06-22T10:44:41.083Z,60.30
2018-06-22T10:47:10.068Z,60.10
2018-06-22T10:49:39.115Z,59.60
2018-06-22T10:52:08.163Z,59.40
2018-06-22T10:54:37.333Z,61.30
2018-06-22T10:57:06.211Z,60.70
2018-06-22T10:59:35.152Z,60.00
2018-06-22T11:02:03.886Z,60.60
2018-06-22T11:04:32.624Z,61.40
2018-06-22T11:07:01.361Z,61.60
2018-06-22T11:11:58.859Z,62.90
2018-06-22T11:14:27.512Z,63.00
2018-06-22T11:16:56.188Z,61.30
2018-06-22T11:19:24.839Z,60.60
2018-06-22T11:21:53.525Z,60.40
2018-06-22T11:24:22.349Z,61.90
2018-06-22T11:26:50.976Z,63.90
2018-06-22T11:29:19.629Z,64.70
2018-06-22T11:31:48.291Z,65.20
2018-06-22T11:34:16.961Z,66.70
2018-06-22T11:36:45.575Z,66.40
2018-06-22T11:39:14.214Z,67.10
2018-06-22T11:41:42.813Z,66.90
2018-06-22T11:44:11.503Z,67.60
2018-06-22T11:46:40.377Z,68.70
2018-06-22T11:49:09.144Z,66.80
2018-06-22T11:51:37.841Z,67.30
2018-06-22T11:54:06.461Z,67.40
2018-06-22T11:56:35.058Z,64.40
2018-06-22T11:59:03.801Z,63.00
2018-06-22T12:01:32.603Z,62.50
2018-06-22T12:04:01.292Z,61.30
2018-06-22T12:06:30.004Z,59.70
2018-06-22T12:08:58.675Z,60.50
2018-06-22T12:11:27.346Z,60.20
2018-06-22T12:13:56.146Z,61.00
2018-06-22T12:16:24.825Z,62.10
2018-06-22T12:18:53.520Z,61.90
2018-06-22T12:21:22.218Z,63.00
2018-06-22T12:23:50.891Z,62.80
2018-06-22T12:26:19.621Z,61.40
2018-06-22T12:28:48.240Z,61.30
2018-06-22T12:31:17.010Z,61.30
2018-06-22T12:33:45.655Z,60.90
2018-06-22T12:36:14.448Z,60.00
2018-06-22T12:38:43.522Z,60.10
2018-06-22T12:41:12.347Z,60.50
2018-06-22T12:43:41.016Z,61.40
2018-06-22T12:46:09.628Z,60.70
2018-06-22T12:48:38.595Z,61.10
2018-06-22T12:51:08.080Z,62.10
2018-06-22T12:53:37.052Z,61.50
2018-06-22T12:56:06.377Z,61.40
2018-06-22T12:58:35.374Z,61.50
2018-06-22T13:01:04.141Z,61.10
2018-06-22T13:03:32.814Z,60.20
2018-06-22T13:06:01.548Z,60.40
2018-06-22T13:08:30.161Z,59.40
2018-06-22T13:10:58.789Z,59.50
2018-06-22T13:13:27.444Z,59.80
2018-06-22T13:15:56.105Z,58.80
2018-06-22T13:18:25.393Z,59.00
2018-06-22T13:20:54.041Z,59.30
2018-06-22T13:23:22.768Z,59.50
2018-06-22T13:25:51.365Z,59.30
2018-06-22T13:28:20.137Z,58.50
2018-06-22T13:30:51.079Z,57.60
2018-06-22T13:33:19.774Z,58.90
2018-06-22T13:35:48.410Z,63.80
2018-06-22T13:38:17.145Z,66.90
2018-06-22T13:40:45.773Z,67.30
2018-06-22T13:43:14.432Z,69.40
2018-06-22T14:29:25.308Z,75.20
2018-06-22T14:31:54.090Z,62.90
2018-06-22T14:34:22.922Z,62.70
2018-06-22T14:36:51.673Z,62.00
2018-06-22T14:39:20.305Z,60.70
2018-06-22T14:41:49.016Z,60.70
2018-06-22T14:44:17.640Z,60.40
2018-06-22T14:46:46.484Z,60.60
2018-06-22T14:49:15.130Z,61.40
2018-06-22T14:51:43.795Z,61.20
2018-06-22T14:54:17.829Z,60.80
2018-06-22T14:56:51.762Z,60.50
2018-06-22T14:59:25.795Z,60.00
2018-06-22T15:01:59.694Z,58.70
2018-06-22T15:04:33.653Z,58.80
2018-06-22T15:07:07.602Z,59.00
2018-06-22T15:09:36.251Z,59.50
2018-06-22T15:12:04.881Z,59.90
2018-06-22T15:14:33.705Z,59.90
2018-06-22T15:19:30.792Z,61.50
2018-06-22T15:21:59.524Z,65.20
2018-06-22T15:24:28.340Z,69.30
2018-06-22T15:26:57.661Z,68.00
2018-06-22T15:29:26.417Z,69.30
2018-06-22T15:31:55.365Z,67.60
2018-06-22T15:34:29.488Z,68.80
2018-06-22T15:37:03.828Z,67.20
2018-06-22T15:39:37.973Z,68.20
2018-06-22T15:42:11.855Z,67.50
2018-06-22T15:44:45.916Z,65.50
2018-06-22T15:47:20.003Z,64.70
2018-06-22T15:49:54.203Z,64.80
2018-06-22T15:52:28.363Z,63.30
2018-06-22T15:55:06.121Z,63.50
2018-06-22T15:57:35.321Z,64.90
2018-06-22T16:00:04.717Z,64.90
2018-06-22T16:02:38.921Z,65.90
2018-06-22T16:05:07.928Z,66.40
2018-06-22T16:07:36.596Z,67.30
2018-06-22T16:10:05.329Z,68.00
2018-06-22T16:15:13.425Z,71.60
2018-06-22T16:17:47.434Z,72.40
2018-06-22T16:20:21.297Z,74.90
2018-06-22T16:22:55.482Z,78.20
2018-06-22T16:25:29.723Z,77.70
2018-06-22T16:28:00.180Z,77.10
2018-06-22T16:30:29.431Z,79.00
2018-06-22T16:32:58.108Z,79.30
2018-06-22T16:35:27.177Z,77.90
2018-06-22T16:37:56.308Z,78.00
2018-06-22T16:40:24.991Z,73.40
2018-06-22T16:42:53.664Z,74.60
2018-06-22T16:45:22.352Z,74.40
2018-06-22T16:47:51.086Z,75.70
2018-06-22T16:50:19.812Z,73.10
2018-06-22T16:52:48.548Z,74.00
2018-06-22T16:55:17.382Z,72.70
2018-06-22T16:57:46.202Z,73.70
2018-06-22T17:00:14.857Z,74.60
2018-06-22T17:02:43.563Z,75.90
2018-06-22T17:05:12.390Z,76.70
2018-06-22T17:07:46.461Z,76.30
2018-06-22T17:10:20.471Z,76.90
2018-06-22T17:12:54.384Z,77.50
2018-06-22T17:15:28.688Z,76.60
2018-06-22T17:18:02.625Z,76.30
2018-06-22T17:20:31.305Z,75.90
2018-06-22T17:23:00.057Z,76.20
2018-06-22T17:25:28.975Z,76.80
2018-06-22T17:27:57.677Z,76.50
2018-06-22T17:30:26.396Z,77.60
2018-06-22T17:32:55.094Z,78.10
2018-06-22T17:35:23.754Z,78.20
2018-06-22T17:37:52.717Z,78.90
2018-06-22T17:40:21.365Z,80.10
2018-06-22T17:42:50.041Z,78.50
2018-06-22T17:45:18.738Z,80.30
2018-06-22T17:47:47.369Z,81.50
2018-06-22T17:50:21.563Z,80.10
2018-06-22T17:52:50.601Z,80.10
2018-06-22T17:55:19.365Z,81.30
2018-06-22T17:57:48.041Z,81.80
2018-06-22T18:00:22.012Z,82.40
2018-06-22T18:02:56.013Z,83.20
2018-06-22T18:05:30.069Z,81.70
2018-06-22T18:07:58.850Z,83.40
2018-06-22T18:11:31.490Z,81.30
2018-06-22T18:14:00.233Z,81.50
2018-06-22T18:16:29.119Z,82.60
2018-06-22T18:18:57.730Z,83.80
2018-06-22T18:21:26.489Z,83.90
2018-06-22T18:23:55.319Z,83.20
2018-06-22T18:26:24.272Z,82.60
2018-06-22T18:28:53.122Z,83.20
2018-06-22T18:31:21.929Z,81.00
2018-06-22T18:33:50.615Z,81.80
2018-06-22T18:36:19.331Z,82.80
2018-06-22T18:38:48.122Z,83.60
2018-06-22T18:41:16.878Z,83.90
2018-06-22T18:43:50.821Z,83.60
2018-06-22T18:46:19.452Z,83.90
2018-06-22T18:48:48.224Z,84.70
2018-06-22T18:51:17.100Z,85.30
2018-06-22T18:53:50.991Z,85.10
2018-06-22T18:56:25.122Z,84.10
2018-06-22T18:58:59.126Z,84.70
2018-06-22T19:01:33.133Z,85.70
2018-06-22T19:04:01.969Z,85.00
2018-06-22T19:06:30.749Z,85.80
2018-06-22T19:08:59.608Z,85.90
2018-06-22T19:11:28.478Z,85.20
2018-06-22T19:13:59.700Z,85.60
2018-06-22T19:16:29.148Z,86.10
2018-06-22T19:19:00.316Z,85.10
2018-06-22T19:21:32.580Z,86.00
2018-06-22T19:24:02.738Z,86.10
2018-06-22T19:26:32.631Z,84.90
2018-06-22T19:29:02.457Z,85.70
2018-06-22T19:31:32.309Z,85.60
2018-06-22T19:34:01.973Z,86.10
2018-06-22T19:36:31.458Z,86.10
2018-06-22T19:39:01.977Z,86.00
2018-06-22T19:41:33.021Z,86.00
2018-06-22T19:44:08.248Z,86.70
2018-06-22T19:46:44.149Z,86.00
2018-06-22T19:49:20.350Z,86.50
2018-06-22T19:51:55.328Z,86.00
2018-06-22T19:54:25.258Z,85.90
2018-06-22T19:56:55.080Z,85.60
2018-06-22T19:59:24.945Z,86.10
2018-06-22T20:01:54.126Z,86.20
2018-06-22T20:04:24.858Z,86.30
2018-06-22T20:06:54.799Z,85.40
2018-06-22T20:09:24.456Z,86.00
2018-06-22T20:11:54.569Z,87.60
2018-06-22T20:14:25.488Z,85.90
2018-06-22T20:19:24.702Z,87.20
2018-06-22T20:21:54.354Z,87.40
2018-06-22T20:24:29.306Z,87.50
2018-06-22T20:26:59.175Z,86.70
2018-06-22T20:29:29.904Z,86.70
2018-06-22T20:32:01.205Z,85.40
2018-06-22T20:34:36.213Z,86.40
2018-06-22T20:37:11.513Z,87.20
2018-06-22T20:39:47.900Z,87.40
2018-06-22T20:42:21.960Z,87.60
2018-06-22T20:44:55.999Z,87.50
2018-06-22T20:47:30.321Z,87.60
2018-06-22T20:50:04.329Z,86.70
2018-06-22T20:55:01.696Z,86.30
2018-06-22T20:57:30.901Z,87.10
2018-06-22T20:59:59.707Z,85.30
2018-06-22T21:02:28.374Z,87.00
2018-06-22T21:04:57.011Z,87.60
2018-06-22T21:07:25.627Z,87.30
2018-06-22T21:09:54.329Z,87.70
2018-06-22T21:12:26.250Z,87.50
2018-06-22T21:14:51.776Z,88.30
2018-06-22T21:17:20.697Z,87.70
2018-06-22T21:19:49.365Z,86.30
2018-06-22T21:22:18.037Z,86.80
2018-06-22T21:24:46.689Z,84.50
2018-06-22T21:27:20.659Z,83.70
2018-06-22T21:29:54.639Z,84.30
2018-06-22T21:32:28.625Z,84.70
2018-06-22T21:35:02.572Z,85.20
2018-06-22T21:37:36.582Z,84.00
2018-06-22T21:40:05.630Z,84.40
2018-06-22T21:45:02.742Z,82.80
2018-06-22T21:47:31.585Z,83.90
2018-06-22T21:50:00.329Z,85.30
2018-06-22T21:52:29.136Z,83.00
2018-06-22T21:54:57.770Z,83.10
2018-06-22T21:57:26.408Z,82.60
2018-06-22T21:59:55.396Z,83.40
2018-06-22T22:02:24.262Z,84.50
2018-06-22T22:04:53.700Z,82.70
2018-06-22T22:07:22.367Z,81.10
2018-06-22T22:09:51.068Z,82.40
2018-06-22T22:12:19.816Z,80.60
2018-06-22T22:14:48.445Z,80.90
2018-06-22T22:22:13.741Z,80.20
2018-06-22T22:24:42.661Z,79.80
2018-06-22T22:27:11.326Z,80.40
2018-06-22T22:29:40.207Z,79.70
2018-06-22T22:32:08.845Z,80.70
2018-06-22T22:34:37.555Z,80.90
2018-06-22T22:37:06.172Z,81.90
2018-06-22T22:39:34.883Z,80.50
2018-06-22T22:42:03.653Z,81.40
2018-06-22T22:44:32.694Z,81.20
2018-06-22T22:47:01.645Z,81.80
2018-06-22T22:49:30.529Z,82.00
2018-06-22T22:51:59.159Z,83.00
2018-06-22T22:54:28.044Z,81.70
2018-06-22T22:59:25.108Z,82.20
2018-06-22T23:01:53.689Z,83.50
2018-06-22T23:04:22.316Z,83.90
2018-06-22T23:06:51.155Z,85.00
2018-06-22T23:09:19.774Z,84.30
2018-06-22T23:11:48.418Z,83.80
2018-06-22T23:14:17.088Z,83.80
2018-06-22T23:16:45.805Z,82.60
2018-06-22T23:19:14.452Z,81.50
2018-06-22T23:21:43.154Z,81.50
2018-06-22T23:24:11.765Z,81.90
2018-06-22T23:26:40.464Z,80.50
2018-06-22T23:29:09.098Z,81.10
2018-06-22T23:31:37.799Z,80.70
2018-06-22T23:34:06.660Z,80.10
2018-06-22T23:36:35.269Z,80.70
2018-06-22T23:39:06.228Z,80.10
2018-06-22T23:41:34.893Z,80.50
2018-06-22T23:44:04.194Z,80.20
2018-06-22T23:46:32.956Z,79.60
2018-06-22T23:49:01.568Z,79.90
2018-06-22T23:51:30.373Z,80.00
2018-06-22T23:53:59.030Z,79.60
2018-06-22T23:56:27.636Z,80.20
2018-06-22T23:58:56.390Z,80.50
